Jonathan, Mississippi
Current Conditions -  °F | °C
As of 3:56 AM on Sunday 25 Jan 2015 (Local Time) from KMOB Reporting Station
Clear Clear  
Wind Chill:   Ceiling: Unl
Heat Index:   Visibility: 10mi
Dew Point:   Wind: 5mph
Humidity: 93%   Direction: 250°WSW
Pressure: 30.05"   Gusts: NA
Location:  31.1153°N, 88.5168°W
Report Text: KMOB 250956Z AUTO 25004KT 10SM CLR 03/02 A3005 RMK AO2 SLP176 T00330022
Loading
Personal Weather Stations






























Interactive Weather Map New forecast layout! Learn more

10-Day Weather Forecast

Advertisements
Track Severe Weather on mobile